sensor_id;sensor_type;location;lat;lon;timestamp;temperature;humidity
796;DHT22;381;48.770;9.188;2023-04-19T00:00:29;12.60;99.90
796;DHT22;381;48.770;9.188;2023-04-19T00:05:31;12.60;99.90
796;DHT22;381;48.770;9.188;2023-04-19T00:10:33;12.60;99.90
796;DHT22;381;48.770;9.188;2023-04-19T00:15:38;12.60;99.90
796;DHT22;381;48.770;9.188;2023-04-19T00:20:40;12.60;99.90
796;DHT22;381;48.770;9.188;2023-04-19T00:25:45;12.60;99.90
796;DHT22;381;48.770;9.188;2023-04-19T00:30:48;12.50;99.90
796;DHT22;381;48.770;9.188;2023-04-19T00:35:50;12.60;99.90
796;DHT22;381;48.770;9.188;2023-04-19T00:40:54;12.60;99.90
796;DHT22;381;48.770;9.188;2023-04-19T00:45:57;12.50;99.90
796;DHT22;381;48.770;9.188;2023-04-19T00:50:59;12.50;99.90
796;DHT22;381;48.770;9.188;2023-04-19T00:56:03;12.50;99.90
796;DHT22;381;48.770;9.188;2023-04-19T01:01:07;12.50;99.90
796;DHT22;381;48.770;9.188;2023-04-19T01:06:09;12.40;99.90
796;DHT22;381;48.770;9.188;2023-04-19T01:11:11;12.40;99.90
796;DHT22;381;48.770;9.188;2023-04-19T01:16:15;12.40;99.90
796;DHT22;381;48.770;9.188;2023-04-19T01:21:17;12.40;99.90
796;DHT22;381;48.770;9.188;2023-04-19T01:26:20;12.40;99.90
796;DHT22;381;48.770;9.188;2023-04-19T01:31:22;12.40;99.90
796;DHT22;381;48.770;9.188;2023-04-19T01:36:24;12.40;99.90
796;DHT22;381;48.770;9.188;2023-04-19T01:41:28;12.40;99.90
796;DHT22;381;48.770;9.188;2023-04-19T01:46:31;12.30;99.90
796;DHT22;381;48.770;9.188;2023-04-19T01:51:33;12.40;99.90
796;DHT22;381;48.770;9.188;2023-04-19T01:56:37;12.40;99.90
796;DHT22;381;48.770;9.188;2023-04-19T02:01:39;12.30;99.90
796;DHT22;381;48.770;9.188;2023-04-19T02:06:41;12.30;99.90
796;DHT22;381;48.770;9.188;2023-04-19T02:11:44;12.30;99.90
796;DHT22;381;48.770;9.188;2023-04-19T02:16:47;12.30;99.90
796;DHT22;381;48.770;9.188;2023-04-19T02:21:49;12.30;99.90
796;DHT22;381;48.770;9.188;2023-04-19T02:26:53;12.30;99.90
796;DHT22;381;48.770;9.188;2023-04-19T02:31:55;12.30;99.90
796;DHT22;381;48.770;9.188;2023-04-19T02:36:57;12.20;99.90
796;DHT22;381;48.770;9.188;2023-04-19T02:42:00;12.20;99.90
796;DHT22;381;48.770;9.188;2023-04-19T02:47:03;12.20;99.90
796;DHT22;381;48.770;9.188;2023-04-19T02:52:05;12.20;99.90
796;DHT22;381;48.770;9.188;2023-04-19T02:57:09;12.10;99.90
796;DHT22;381;48.770;9.188;2023-04-19T03:02:14;12.10;99.90
796;DHT22;381;48.770;9.188;2023-04-19T03:07:16;12.10;99.90
796;DHT22;381;48.770;9.188;2023-04-19T03:12:20;12.10;99.90
796;DHT22;381;48.770;9.188;2023-04-19T03:17:22;12.10;99.90
796;DHT22;381;48.770;9.188;2023-04-19T03:22:25;12.10;99.90
796;DHT22;381;48.770;9.188;2023-04-19T03:27:29;12.10;99.90
796;DHT22;381;48.770;9.188;2023-04-19T03:32:36;12.10;99.90
796;DHT22;381;48.770;9.188;2023-04-19T03:37:40;12.10;99.90
796;DHT22;381;48.770;9.188;2023-04-19T03:42:45;12.10;99.90
796;DHT22;381;48.770;9.188;2023-04-19T03:47:56;12.10;99.90
796;DHT22;381;48.770;9.188;2023-04-19T03:52:59;12.10;99.90
796;DHT22;381;48.770;9.188;2023-04-19T03:58:03;12.10;99.90
796;DHT22;381;48.770;9.188;2023-04-19T04:03:13;12.10;99.90
796;DHT22;381;48.770;9.188;2023-04-19T04:08:15;12.00;99.90
796;DHT22;381;48.770;9.188;2023-04-19T04:13:19;12.00;99.90
796;DHT22;381;48.770;9.188;2023-04-19T04:18:36;12.00;99.90
796;DHT22;381;48.770;9.188;2023-04-19T04:23:41;11.90;99.90
796;DHT22;381;48.770;9.188;2023-04-19T04:28:50;11.80;99.90
796;DHT22;381;48.770;9.188;2023-04-19T04:33:53;11.70;99.90
796;DHT22;381;48.770;9.188;2023-04-19T04:39:05;11.70;99.90
796;DHT22;381;48.770;9.188;2023-04-19T04:44:12;11.70;99.90
796;DHT22;381;48.770;9.188;2023-04-19T04:49:19;11.60;99.90
796;DHT22;381;48.770;9.188;2023-04-19T04:54:25;11.60;99.90
796;DHT22;381;48.770;9.188;2023-04-19T04:59:30;11.50;99.90
796;DHT22;381;48.770;9.188;2023-04-19T05:04:34;11.50;99.90
796;DHT22;381;48.770;9.188;2023-04-19T05:09:36;11.60;99.90
796;DHT22;381;48.770;9.188;2023-04-19T05:14:39;11.60;99.90
796;DHT22;381;48.770;9.188;2023-04-19T05:19:42;11.70;99.90
796;DHT22;381;48.770;9.188;2023-04-19T05:24:45;11.80;99.90
796;DHT22;381;48.770;9.188;2023-04-19T05:29:51;11.80;99.90
796;DHT22;381;48.770;9.188;2023-04-19T05:34:55;11.80;99.90
796;DHT22;381;48.770;9.188;2023-04-19T05:39:57;11.90;99.90
796;DHT22;381;48.770;9.188;2023-04-19T05:45:09;11.90;99.90
796;DHT22;381;48.770;9.188;2023-04-19T05:50:11;11.90;99.90
796;DHT22;381;48.770;9.188;2023-04-19T05:55:20;12.00;99.90
796;DHT22;381;48.770;9.188;2023-04-19T06:00:24;12.00;99.90
796;DHT22;381;48.770;9.188;2023-04-19T06:05:43;12.00;99.90
796;DHT22;381;48.770;9.188;2023-04-19T06:10:45;12.00;99.90
796;DHT22;381;48.770;9.188;2023-04-19T06:15:50;12.00;99.90
796;DHT22;381;48.770;9.188;2023-04-19T06:20:52;12.10;99.90
796;DHT22;381;48.770;9.188;2023-04-19T06:25:54;12.10;99.90
796;DHT22;381;48.770;9.188;2023-04-19T06:30:58;12.20;99.90
796;DHT22;381;48.770;9.188;2023-04-19T06:36:00;12.30;99.90
796;DHT22;381;48.770;9.188;2023-04-19T06:41:02;12.30;99.90
796;DHT22;381;48.770;9.188;2023-04-19T06:46:06;12.40;99.90
796;DHT22;381;48.770;9.188;2023-04-19T06:51:08;12.40;99.90
796;DHT22;381;48.770;9.188;2023-04-19T06:56:10;12.50;99.90
796;DHT22;381;48.770;9.188;2023-04-19T07:01:14;12.50;99.90
796;DHT22;381;48.770;9.188;2023-04-19T07:06:16;12.60;99.90
796;DHT22;381;48.770;9.188;2023-04-19T07:11:18;12.70;99.90
796;DHT22;381;48.770;9.188;2023-04-19T07:16:25;12.90;99.90
796;DHT22;381;48.770;9.188;2023-04-19T07:21:27;13.00;99.90
796;DHT22;381;48.770;9.188;2023-04-19T07:26:33;13.00;99.90
796;DHT22;381;48.770;9.188;2023-04-19T07:31:37;13.10;99.90
796;DHT22;381;48.770;9.188;2023-04-19T07:36:41;13.30;99.90
796;DHT22;381;48.770;9.188;2023-04-19T07:41:44;13.50;99.90
796;DHT22;381;48.770;9.188;2023-04-19T07:46:47;13.70;99.90
796;DHT22;381;48.770;9.188;2023-04-19T07:51:49;13.80;99.90
796;DHT22;381;48.770;9.188;2023-04-19T07:56:51;13.90;99.90
796;DHT22;381;48.770;9.188;2023-04-19T08:01:55;14.10;99.90
796;DHT22;381;48.770;9.188;2023-04-19T08:06:57;14.20;99.90
796;DHT22;381;48.770;9.188;2023-04-19T08:11:59;14.40;99.90
796;DHT22;381;48.770;9.188;2023-04-19T08:17:03;14.50;99.90
796;DHT22;381;48.770;9.188;2023-04-19T08:22:05;14.60;99.90
796;DHT22;381;48.770;9.188;2023-04-19T08:27:08;14.80;99.90
796;DHT22;381;48.770;9.188;2023-04-19T08:32:12;14.80;99.90
796;DHT22;381;48.770;9.188;2023-04-19T08:37:14;14.70;99.90
796;DHT22;381;48.770;9.188;2023-04-19T08:42:16;14.60;99.90
796;DHT22;381;48.770;9.188;2023-04-19T08:47:21;14.70;98.90
796;DHT22;381;48.770;9.188;2023-04-19T08:52:24;14.60;98.60
796;DHT22;381;48.770;9.188;2023-04-19T08:57:29;14.60;99.20
796;DHT22;381;48.770;9.188;2023-04-19T09:02:45;14.60;99.90
796;DHT22;381;48.770;9.188;2023-04-19T09:07:47;14.60;99.70
796;DHT22;381;48.770;9.188;2023-04-19T09:13:00;14.70;98.60
796;DHT22;381;48.770;9.188;2023-04-19T09:18:04;15.00;97.50
796;DHT22;381;48.770;9.188;2023-04-19T09:23:08;15.40;98.60
796;DHT22;381;48.770;9.188;2023-04-19T09:28:13;15.60;97.30
796;DHT22;381;48.770;9.188;2023-04-19T09:33:30;15.80;96.50
796;DHT22;381;48.770;9.188;2023-04-19T09:38:45;15.90;96.10
796;DHT22;381;48.770;9.188;2023-04-19T09:43:48;16.00;97.10
796;DHT22;381;48.770;9.188;2023-04-19T09:48:52;16.20;98.10
796;DHT22;381;48.770;9.188;2023-04-19T09:53:54;16.50;97.50
796;DHT22;381;48.770;9.188;2023-04-19T09:58:56;16.90;97.10
796;DHT22;381;48.770;9.188;2023-04-19T10:04:01;17.20;96.60
796;DHT22;381;48.770;9.188;2023-04-19T10:09:05;17.50;96.40
796;DHT22;381;48.770;9.188;2023-04-19T10:14:09;17.50;94.40
796;DHT22;381;48.770;9.188;2023-04-19T10:19:15;17.30;94.20
796;DHT22;381;48.770;9.188;2023-04-19T10:24:18;17.10;95.30
796;DHT22;381;48.770;9.188;2023-04-19T10:29:54;17.00;94.90
796;DHT22;381;48.770;9.188;2023-04-19T10:35:04;17.00;95.40
796;DHT22;381;48.770;9.188;2023-04-19T10:40:08;16.90;95.80
796;DHT22;381;48.770;9.188;2023-04-19T10:45:31;16.70;96.00
796;DHT22;381;48.770;9.188;2023-04-19T10:50:59;16.60;95.70
796;DHT22;381;48.770;9.188;2023-04-19T10:56:02;16.40;95.90
796;DHT22;381;48.770;9.188;2023-04-19T11:01:31;16.10;95.50
796;DHT22;381;48.770;9.188;2023-04-19T11:06:36;15.70;96.10
796;DHT22;381;48.770;9.188;2023-04-19T11:11:38;15.60;97.10
796;DHT22;381;48.770;9.188;2023-04-19T11:16:40;15.60;97.10
796;DHT22;381;48.770;9.188;2023-04-19T11:21:44;15.70;97.40
796;DHT22;381;48.770;9.188;2023-04-19T11:26:47;15.60;97.10
796;DHT22;381;48.770;9.188;2023-04-19T11:31:49;15.40;97.90
796;DHT22;381;48.770;9.188;2023-04-19T11:36:52;15.30;98.20
796;DHT22;381;48.770;9.188;2023-04-19T11:41:54;15.10;97.50
796;DHT22;381;48.770;9.188;2023-04-19T11:46:59;14.90;98.60
796;DHT22;381;48.770;9.188;2023-04-19T11:52:05;14.70;99.10
796;DHT22;381;48.770;9.188;2023-04-19T11:57:07;14.60;99.90
796;DHT22;381;48.770;9.188;2023-04-19T12:02:11;14.50;99.90
796;DHT22;381;48.770;9.188;2023-04-19T12:07:14;14.30;99.90
796;DHT22;381;48.770;9.188;2023-04-19T12:12:30;14.20;99.90
796;DHT22;381;48.770;9.188;2023-04-19T12:17:32;14.10;99.90
796;DHT22;381;48.770;9.188;2023-04-19T12:22:36;13.90;99.90
796;DHT22;381;48.770;9.188;2023-04-19T12:27:39;13.90;99.90
796;DHT22;381;48.770;9.188;2023-04-19T12:32:41;13.70;99.90
796;DHT22;381;48.770;9.188;2023-04-19T12:37:45;13.60;99.90
796;DHT22;381;48.770;9.188;2023-04-19T12:42:47;13.40;99.90
796;DHT22;381;48.770;9.188;2023-04-19T12:47:49;13.30;99.90
796;DHT22;381;48.770;9.188;2023-04-19T12:52:53;13.10;99.90
796;DHT22;381;48.770;9.188;2023-04-19T12:57:55;13.00;99.90
796;DHT22;381;48.770;9.188;2023-04-19T13:02:57;12.90;99.90
796;DHT22;381;48.770;9.188;2023-04-19T13:08:00;12.80;99.90
796;DHT22;381;48.770;9.188;2023-04-19T13:13:02;12.80;99.90
796;DHT22;381;48.770;9.188;2023-04-19T13:18:05;12.80;99.90
796;DHT22;381;48.770;9.188;2023-04-19T13:23:08;12.80;99.90
796;DHT22;381;48.770;9.188;2023-04-19T13:28:10;12.80;99.90
796;DHT22;381;48.770;9.188;2023-04-19T13:33:12;12.80;99.90
796;DHT22;381;48.770;9.188;2023-04-19T13:38:16;12.80;99.90
796;DHT22;381;48.770;9.188;2023-04-19T13:43:18;12.80;99.90
796;DHT22;381;48.770;9.188;2023-04-19T13:48:20;12.80;99.90
796;DHT22;381;48.770;9.188;2023-04-19T13:53:25;12.80;99.90
796;DHT22;381;48.770;9.188;2023-04-19T13:58:28;12.80;99.90
796;DHT22;381;48.770;9.188;2023-04-19T14:03:31;12.80;99.90
796;DHT22;381;48.770;9.188;2023-04-19T14:08:34;12.80;99.90
796;DHT22;381;48.770;9.188;2023-04-19T14:13:36;12.80;99.90
796;DHT22;381;48.770;9.188;2023-04-19T14:18:39;13.00;99.90
796;DHT22;381;48.770;9.188;2023-04-19T14:23:42;13.20;99.90
796;DHT22;381;48.770;9.188;2023-04-19T14:28:45;13.30;99.90
796;DHT22;381;48.770;9.188;2023-04-19T14:33:47;13.40;99.90
796;DHT22;381;48.770;9.188;2023-04-19T14:38:50;13.50;99.90
796;DHT22;381;48.770;9.188;2023-04-19T14:43:52;13.60;99.90
796;DHT22;381;48.770;9.188;2023-04-19T14:48:55;13.60;99.90
796;DHT22;381;48.770;9.188;2023-04-19T14:54:04;13.60;99.90
796;DHT22;381;48.770;9.188;2023-04-19T14:59:06;13.60;99.90
796;DHT22;381;48.770;9.188;2023-04-19T15:04:08;13.60;99.90
796;DHT22;381;48.770;9.188;2023-04-19T15:09:12;13.40;99.90
796;DHT22;381;48.770;9.188;2023-04-19T15:14:14;13.30;99.90
796;DHT22;381;48.770;9.188;2023-04-19T15:19:16;13.20;99.90
796;DHT22;381;48.770;9.188;2023-04-19T15:24:19;13.20;99.90
796;DHT22;381;48.770;9.188;2023-04-19T15:29:21;13.20;99.90
796;DHT22;381;48.770;9.188;2023-04-19T15:34:23;13.20;99.90
796;DHT22;381;48.770;9.188;2023-04-19T15:39:27;13.20;99.90
796;DHT22;381;48.770;9.188;2023-04-19T15:44:29;13.10;99.90
796;DHT22;381;48.770;9.188;2023-04-19T15:49:31;13.10;99.90
796;DHT22;381;48.770;9.188;2023-04-19T15:54:35;13.10;99.90
796;DHT22;381;48.770;9.188;2023-04-19T15:59:38;13.20;99.90
796;DHT22;381;48.770;9.188;2023-04-19T16:04:40;13.30;99.90
796;DHT22;381;48.770;9.188;2023-04-19T16:09:43;13.40;99.90
796;DHT22;381;48.770;9.188;2023-04-19T16:14:45;13.50;99.90
796;DHT22;381;48.770;9.188;2023-04-19T16:19:47;13.40;99.90
796;DHT22;381;48.770;9.188;2023-04-19T16:24:51;13.30;99.90
796;DHT22;381;48.770;9.188;2023-04-19T16:29:53;13.20;99.90
796;DHT22;381;48.770;9.188;2023-04-19T16:34:55;13.20;99.90
796;DHT22;381;48.770;9.188;2023-04-19T16:39:58;13.20;99.90
796;DHT22;381;48.770;9.188;2023-04-19T16:45:01;13.10;99.90
796;DHT22;381;48.770;9.188;2023-04-19T16:50:04;13.00;99.90
796;DHT22;381;48.770;9.188;2023-04-19T16:55:08;13.00;99.90
796;DHT22;381;48.770;9.188;2023-04-19T17:00:11;12.90;99.90
796;DHT22;381;48.770;9.188;2023-04-19T17:05:14;12.90;99.90
796;DHT22;381;48.770;9.188;2023-04-19T17:10:18;12.90;99.90
796;DHT22;381;48.770;9.188;2023-04-19T17:15:20;12.80;99.90
796;DHT22;381;48.770;9.188;2023-04-19T17:20:23;12.70;99.90
796;DHT22;381;48.770;9.188;2023-04-19T17:25:26;12.70;99.90
796;DHT22;381;48.770;9.188;2023-04-19T17:30:28;12.70;99.90
796;DHT22;381;48.770;9.188;2023-04-19T17:35:30;12.70;99.90
796;DHT22;381;48.770;9.188;2023-04-19T17:40:34;12.70;99.90
796;DHT22;381;48.770;9.188;2023-04-19T17:45:36;12.70;99.90
796;DHT22;381;48.770;9.188;2023-04-19T17:50:38;12.70;99.90
796;DHT22;381;48.770;9.188;2023-04-19T17:55:42;12.60;99.90
796;DHT22;381;48.770;9.188;2023-04-19T18:00:44;12.50;99.90
796;DHT22;381;48.770;9.188;2023-04-19T18:05:46;12.40;99.90
796;DHT22;381;48.770;9.188;2023-04-19T18:10:50;12.40;99.90
796;DHT22;381;48.770;9.188;2023-04-19T18:15:52;12.30;99.90
796;DHT22;381;48.770;9.188;2023-04-19T18:20:54;12.30;99.90
796;DHT22;381;48.770;9.188;2023-04-19T18:25:59;12.20;99.90
796;DHT22;381;48.770;9.188;2023-04-19T18:31:01;12.20;96.90
796;DHT22;381;48.770;9.188;2023-04-19T18:36:04;12.10;96.80
796;DHT22;381;48.770;9.188;2023-04-19T18:41:08;12.00;96.70
796;DHT22;381;48.770;9.188;2023-04-19T18:46:10;11.90;95.60
796;DHT22;381;48.770;9.188;2023-04-19T18:51:13;11.90;98.40
796;DHT22;381;48.770;9.188;2023-04-19T18:56:16;11.80;94.70
796;DHT22;381;48.770;9.188;2023-04-19T19:01:18;11.70;93.30
796;DHT22;381;48.770;9.188;2023-04-19T19:06:20;11.70;96.70
796;DHT22;381;48.770;9.188;2023-04-19T19:11:24;11.60;97.10
796;DHT22;381;48.770;9.188;2023-04-19T19:16:26;11.50;96.10
796;DHT22;381;48.770;9.188;2023-04-19T19:21:28;11.50;96.70
796;DHT22;381;48.770;9.188;2023-04-19T19:26:32;11.40;97.40
796;DHT22;381;48.770;9.188;2023-04-19T19:31:34;11.40;96.60
796;DHT22;381;48.770;9.188;2023-04-19T19:36:36;11.30;96.10
796;DHT22;381;48.770;9.188;2023-04-19T19:41:41;11.10;95.70
796;DHT22;381;48.770;9.188;2023-04-19T19:46:44;11.00;96.80
796;DHT22;381;48.770;9.188;2023-04-19T19:51:46;10.80;95.90
796;DHT22;381;48.770;9.188;2023-04-19T19:56:50;10.70;95.60
796;DHT22;381;48.770;9.188;2023-04-19T20:01:52;10.50;95.30
796;DHT22;381;48.770;9.188;2023-04-19T20:06:54;10.40;95.80
796;DHT22;381;48.770;9.188;2023-04-19T20:11:58;10.20;96.50
796;DHT22;381;48.770;9.188;2023-04-19T20:17:00;10.00;95.80
796;DHT22;381;48.770;9.188;2023-04-19T20:22:03;9.90;97.00
796;DHT22;381;48.770;9.188;2023-04-19T20:27:06;9.80;97.90
796;DHT22;381;48.770;9.188;2023-04-19T20:32:08;9.70;96.40
796;DHT22;381;48.770;9.188;2023-04-19T20:37:11;9.60;97.20
796;DHT22;381;48.770;9.188;2023-04-19T20:42:14;9.50;96.90
796;DHT22;381;48.770;9.188;2023-04-19T20:47:16;9.40;97.00
796;DHT22;381;48.770;9.188;2023-04-19T20:52:18;9.30;96.50
796;DHT22;381;48.770;9.188;2023-04-19T20:57:22;9.30;96.90
796;DHT22;381;48.770;9.188;2023-04-19T21:02:24;9.10;97.70
796;DHT22;381;48.770;9.188;2023-04-19T21:07:26;9.10;97.40
796;DHT22;381;48.770;9.188;2023-04-19T21:12:29;9.00;97.10
796;DHT22;381;48.770;9.188;2023-04-19T21:17:31;8.90;97.60
796;DHT22;381;48.770;9.188;2023-04-19T21:22:34;8.80;97.80
796;DHT22;381;48.770;9.188;2023-04-19T21:27:37;8.80;97.10
796;DHT22;381;48.770;9.188;2023-04-19T21:32:40;8.70;97.60
796;DHT22;381;48.770;9.188;2023-04-19T21:37:42;8.60;97.40
796;DHT22;381;48.770;9.188;2023-04-19T21:42:45;8.60;96.30
796;DHT22;381;48.770;9.188;2023-04-19T21:47:47;8.50;96.60
796;DHT22;381;48.770;9.188;2023-04-19T21:52:49;8.50;95.80
796;DHT22;381;48.770;9.188;2023-04-19T21:57:53;8.40;96.90
796;DHT22;381;48.770;9.188;2023-04-19T22:02:55;8.40;97.30
796;DHT22;381;48.770;9.188;2023-04-19T22:07:57;8.30;97.10
796;DHT22;381;48.770;9.188;2023-04-19T22:13:01;8.20;97.40
796;DHT22;381;48.770;9.188;2023-04-19T22:18:04;8.20;97.50
796;DHT22;381;48.770;9.188;2023-04-19T22:23:06;8.10;97.80
796;DHT22;381;48.770;9.188;2023-04-19T22:28:10;8.00;98.20
796;DHT22;381;48.770;9.188;2023-04-19T22:33:12;8.00;96.90
796;DHT22;381;48.770;9.188;2023-04-19T22:38:14;7.90;97.10
796;DHT22;381;48.770;9.188;2023-04-19T22:43:17;7.90;97.10
796;DHT22;381;48.770;9.188;2023-04-19T22:48:20;7.90;97.30
796;DHT22;381;48.770;9.188;2023-04-19T22:53:22;7.80;97.60
796;DHT22;381;48.770;9.188;2023-04-19T22:58:25;7.90;97.30
796;DHT22;381;48.770;9.188;2023-04-19T23:03:27;7.80;97.20
796;DHT22;381;48.770;9.188;2023-04-19T23:08:29;7.80;97.10
796;DHT22;381;48.770;9.188;2023-04-19T23:13:34;7.90;98.00
796;DHT22;381;48.770;9.188;2023-04-19T23:18:37;8.00;97.70
796;DHT22;381;48.770;9.188;2023-04-19T23:23:40;8.00;98.80
796;DHT22;381;48.770;9.188;2023-04-19T23:28:43;8.00;99.30
796;DHT22;381;48.770;9.188;2023-04-19T23:33:45;8.10;99.90
796;DHT22;381;48.770;9.188;2023-04-19T23:38:47;8.20;98.70
796;DHT22;381;48.770;9.188;2023-04-19T23:43:51;8.20;98.60
796;DHT22;381;48.770;9.188;2023-04-19T23:48:53;8.20;97.80
796;DHT22;381;48.770;9.188;2023-04-19T23:53:55;8.20;98.30
796;DHT22;381;48.770;9.188;2023-04-19T23:58:58;8.20;97.40
